createdAt,value
2018-09-28T00:00:57.259Z,8.28
2018-09-28T00:01:57.252Z,8.27
2018-09-28T00:02:57.253Z,8.19
2018-09-28T00:03:57.236Z,8.19
2018-09-28T00:04:57.219Z,8.15
2018-09-28T00:05:57.204Z,8.16
2018-09-28T00:06:57.203Z,8.16
2018-09-28T00:07:57.190Z,8.16
2018-09-28T00:08:57.192Z,8.05
2018-09-28T00:09:57.154Z,8.01
2018-09-28T00:10:57.149Z,8.01
2018-09-28T00:11:57.140Z,8.03
2018-09-28T00:12:57.124Z,8.03
2018-09-28T00:13:57.114Z,8.06
2018-09-28T00:14:57.145Z,8.03
2018-09-28T00:15:57.084Z,8.08
2018-09-28T00:16:57.076Z,8.10
2018-09-28T00:17:57.069Z,8.10
2018-09-28T00:18:57.068Z,8.08
2018-09-28T00:19:57.060Z,8.05
2018-09-28T00:20:57.037Z,8.13
2018-09-28T00:21:57.016Z,8.10
2018-09-28T00:22:57.022Z,8.06
2018-09-28T00:23:57.017Z,8.05
2018-09-28T00:24:56.999Z,8.03
2018-09-28T00:25:57.022Z,7.98
2018-09-28T00:26:56.960Z,8.01
2018-09-28T00:27:56.966Z,8.05
2018-09-28T00:28:56.975Z,8.01
2018-09-28T00:29:56.948Z,8.00
2018-09-28T00:30:56.917Z,8.03
2018-09-28T00:31:56.904Z,7.94
2018-09-28T00:32:56.899Z,7.97
2018-09-28T00:33:56.880Z,8.01
2018-09-28T00:34:56.883Z,8.00
2018-09-28T00:35:56.966Z,8.00
2018-09-28T00:36:56.845Z,8.03
2018-09-28T00:37:56.849Z,7.97
2018-09-28T00:38:56.822Z,7.90
2018-09-28T00:39:56.811Z,7.93
2018-09-28T00:40:56.850Z,7.97
2018-09-28T00:41:56.789Z,7.94
2018-09-28T00:42:56.814Z,7.93
2018-09-28T00:43:56.779Z,7.98
2018-09-28T00:44:56.754Z,7.97
2018-09-28T00:45:56.769Z,8.00
2018-09-28T00:46:56.757Z,7.88
2018-09-28T00:47:56.735Z,7.83
2018-09-28T00:48:56.704Z,7.94
2018-09-28T00:49:56.703Z,7.88
2018-09-28T00:50:56.698Z,7.90
2018-09-28T00:51:56.693Z,7.94
2018-09-28T00:52:56.676Z,7.95
2018-09-28T00:53:56.663Z,7.94
2018-09-28T00:54:56.647Z,7.88
2018-09-28T00:55:56.636Z,7.93
2018-09-28T00:56:56.637Z,7.87
2018-09-28T00:57:56.614Z,7.87
2018-09-28T00:58:56.597Z,7.83
2018-09-28T00:59:56.580Z,7.94
2018-09-28T01:00:56.572Z,7.77
2018-09-28T01:01:56.589Z,7.80
2018-09-28T01:02:56.556Z,7.82
2018-09-28T01:03:56.544Z,7.73
2018-09-28T01:04:56.529Z,7.87
2018-09-28T01:05:56.514Z,7.72
2018-09-28T01:06:56.548Z,7.69
2018-09-28T01:07:56.502Z,7.83
2018-09-28T01:08:56.497Z,7.75
2018-09-28T01:09:56.481Z,7.90
2018-09-28T01:10:56.455Z,7.83
2018-09-28T01:11:56.510Z,7.91
2018-09-28T01:12:56.447Z,7.80
2018-09-28T01:13:56.440Z,7.83
2018-09-28T01:14:56.429Z,7.82
2018-09-28T01:15:56.428Z,7.87
2018-09-28T01:16:56.414Z,7.85
2018-09-28T01:17:56.393Z,7.88
2018-09-28T01:18:56.371Z,7.95
2018-09-28T01:19:56.372Z,7.91
2018-09-28T01:20:56.359Z,8.00
2018-09-28T01:21:56.338Z,8.01
2018-09-28T01:22:56.348Z,8.05
2018-09-28T01:23:56.313Z,8.01
2018-09-28T01:24:56.301Z,8.00
2018-09-28T01:25:56.292Z,8.12
2018-09-28T01:26:56.283Z,8.15
2018-09-28T01:27:56.297Z,8.15
2018-09-28T01:28:56.261Z,8.18
2018-09-28T01:29:56.246Z,8.13
2018-09-28T01:30:56.228Z,8.24
2018-09-28T01:31:56.256Z,8.23
2018-09-28T01:32:56.253Z,8.27
2018-09-28T01:33:56.196Z,8.36
2018-09-28T01:34:56.189Z,8.37
2018-09-28T01:35:56.186Z,8.44
2018-09-28T01:36:56.204Z,8.37
2018-09-28T01:37:56.171Z,8.42
2018-09-28T01:38:56.155Z,8.51
2018-09-28T01:39:56.128Z,8.48
2018-09-28T01:40:56.117Z,8.49
2018-09-28T01:41:56.128Z,8.51
2018-09-28T01:42:56.143Z,8.52
2018-09-28T01:43:56.086Z,8.49
2018-09-28T01:44:56.069Z,8.48
2018-09-28T01:45:56.057Z,8.48
2018-09-28T01:46:56.052Z,8.53
2018-09-28T01:47:56.046Z,8.42
2018-09-28T01:48:56.046Z,8.44
2018-09-28T01:49:56.032Z,8.37
2018-09-28T01:50:56.006Z,8.42
2018-09-28T01:51:55.992Z,8.45
2018-09-28T01:52:55.980Z,8.41
2018-09-28T01:53:56.038Z,8.28
2018-09-28T01:54:55.958Z,8.42
2018-09-28T01:55:55.963Z,8.48
2018-09-28T01:56:55.944Z,8.37
2018-09-28T01:57:55.935Z,8.41
2018-09-28T01:58:55.929Z,8.38
2018-09-28T01:59:55.908Z,8.44
2018-09-28T02:00:55.900Z,8.51
2018-09-28T02:01:55.878Z,8.46
2018-09-28T02:02:55.870Z,8.56
2018-09-28T02:03:55.878Z,8.58
2018-09-28T02:04:55.851Z,8.61
2018-09-28T02:05:55.861Z,8.74
2018-09-28T02:06:55.823Z,8.66
2018-09-28T02:07:55.813Z,8.66
2018-09-28T02:08:55.828Z,8.66
2018-09-28T02:09:55.793Z,8.73
2018-09-28T02:10:55.790Z,8.82
2018-09-28T02:11:55.767Z,8.92
2018-09-28T02:12:55.754Z,8.89
2018-09-28T02:13:55.761Z,8.94
2018-09-28T02:14:55.734Z,8.89
2018-09-28T02:15:55.817Z,9.00
2018-09-28T02:16:55.728Z,9.10
2018-09-28T02:17:55.701Z,9.02
2018-09-28T02:18:55.708Z,9.10
2018-09-28T02:19:55.676Z,9.13
2018-09-28T02:20:55.684Z,9.13
2018-09-28T02:21:55.667Z,9.23
2018-09-28T02:22:55.662Z,9.22
2018-09-28T02:23:55.647Z,9.26
2018-09-28T02:24:55.629Z,9.31
2018-09-28T02:25:55.606Z,9.34
2018-09-28T02:26:55.600Z,9.32
2018-09-28T02:27:55.587Z,9.39
2018-09-28T02:28:55.613Z,9.29
2018-09-28T02:29:55.592Z,9.41
2018-09-28T02:30:55.555Z,9.55
2018-09-28T02:31:55.543Z,9.51
2018-09-28T02:32:55.533Z,9.58
2018-09-28T02:33:55.541Z,9.55
2018-09-28T02:34:55.549Z,9.58
2018-09-28T02:35:55.502Z,9.62
2018-09-28T02:36:55.487Z,9.68
2018-09-28T02:37:55.469Z,9.62
2018-09-28T02:38:55.469Z,9.73
2018-09-28T02:39:55.480Z,9.73
2018-09-28T02:40:55.440Z,9.69
2018-09-28T02:41:55.458Z,9.86
2018-09-28T02:42:55.416Z,9.87
2018-09-28T02:43:55.407Z,9.87
2018-09-28T02:44:55.416Z,9.86
2018-09-28T02:45:55.393Z,9.91
2018-09-28T02:46:55.386Z,9.98
2018-09-28T02:47:55.366Z,9.99
2018-09-28T02:48:55.358Z,9.97
2018-09-28T02:49:55.361Z,9.97
2018-09-28T02:50:55.333Z,10.02
2018-09-28T02:51:55.321Z,9.97
2018-09-28T02:52:55.308Z,9.98
2018-09-28T02:53:55.314Z,9.97
2018-09-28T02:54:55.305Z,9.99
2018-09-28T02:55:55.306Z,10.07
2018-09-28T02:56:55.269Z,10.10
2018-09-28T02:57:55.250Z,10.12
2018-09-28T02:58:55.241Z,10.13
2018-09-28T02:59:55.264Z,10.12
2018-09-28T03:00:55.221Z,10.16
2018-09-28T03:01:55.218Z,10.12
2018-09-28T03:02:55.199Z,10.10
2018-09-28T03:03:55.196Z,10.13
2018-09-28T03:04:55.198Z,10.13
2018-09-28T03:05:55.168Z,10.12
2018-09-28T03:06:55.166Z,10.09
2018-09-28T03:07:55.135Z,10.13
2018-09-28T03:08:55.133Z,10.20
2018-09-28T03:09:55.119Z,10.12
2018-09-28T03:10:55.128Z,10.15
2018-09-28T03:11:55.124Z,10.17
2018-09-28T03:12:55.093Z,10.19
2018-09-28T03:13:55.102Z,10.23
2018-09-28T03:14:55.058Z,10.22
2018-09-28T03:15:55.065Z,10.22
2018-09-28T03:16:55.044Z,10.30
2018-09-28T03:17:55.036Z,10.28
2018-09-28T03:18:55.038Z,10.23
2018-09-28T03:19:55.045Z,10.31
2018-09-28T03:20:55.018Z,10.33
2018-09-28T03:21:55.019Z,10.22
2018-09-28T03:22:54.988Z,10.28
2018-09-28T03:23:54.985Z,10.37
2018-09-28T03:24:54.952Z,10.37
2018-09-28T03:25:55.000Z,10.40
2018-09-28T03:26:54.952Z,10.35
2018-09-28T03:27:54.960Z,10.35
2018-09-28T03:28:54.908Z,10.41
2018-09-28T03:29:54.912Z,10.33
2018-09-28T03:30:54.880Z,10.35
2018-09-28T03:31:54.929Z,10.38
2018-09-28T03:32:54.869Z,10.44
2018-09-28T03:33:54.848Z,10.42
2018-09-28T03:34:54.857Z,10.44
2018-09-28T03:35:54.845Z,10.41
2018-09-28T03:36:54.855Z,10.48
2018-09-28T03:37:54.816Z,10.46
2018-09-28T03:38:54.807Z,10.51
2018-09-28T03:39:54.795Z,10.57
2018-09-28T03:40:54.783Z,10.51
2018-09-28T03:41:54.755Z,10.59
2018-09-28T03:42:54.797Z,10.48
2018-09-28T03:43:54.730Z,10.56
2018-09-28T03:44:54.741Z,10.53
2018-09-28T03:45:54.718Z,10.53
2018-09-28T03:46:54.717Z,10.61
2018-09-28T03:47:54.723Z,10.63
2018-09-28T03:48:54.693Z,10.61
2018-09-28T03:49:54.663Z,10.64
2018-09-28T03:50:54.663Z,10.63
2018-09-28T03:51:54.659Z,10.74
2018-09-28T03:52:54.668Z,10.64
2018-09-28T03:53:54.624Z,10.59
2018-09-28T03:54:54.610Z,10.68
2018-09-28T03:55:54.611Z,10.64
2018-09-28T03:56:54.589Z,10.63
2018-09-28T03:57:54.595Z,10.64
2018-09-28T03:58:54.613Z,10.64
2018-09-28T03:59:54.552Z,10.53
2018-09-28T04:00:54.537Z,10.71
2018-09-28T04:01:54.555Z,10.69
2018-09-28T04:02:54.555Z,10.64
2018-09-28T04:03:54.526Z,10.68
2018-09-28T04:04:54.489Z,10.67
2018-09-28T04:05:54.485Z,10.69
2018-09-28T04:06:54.471Z,10.76
2018-09-28T04:07:54.477Z,10.72
2018-09-28T04:08:54.463Z,10.78
2018-09-28T04:09:54.438Z,10.79
2018-09-28T04:10:54.428Z,10.76
2018-09-28T04:11:54.432Z,10.82
2018-09-28T04:12:54.401Z,10.78
2018-09-28T04:13:54.423Z,10.76
2018-09-28T04:14:54.441Z,10.82
2018-09-28T04:15:54.375Z,10.87
2018-09-28T04:16:54.358Z,10.94
2018-09-28T04:17:54.351Z,10.82
2018-09-28T04:18:54.357Z,10.96
2018-09-28T04:19:54.326Z,10.94
2018-09-28T04:20:54.332Z,10.93
2018-09-28T04:21:54.333Z,10.96
2018-09-28T04:22:54.295Z,10.99
2018-09-28T04:23:54.475Z,10.99
2018-09-28T04:24:54.264Z,10.87
2018-09-28T04:25:54.259Z,10.97
2018-09-28T04:26:54.242Z,11.02
2018-09-28T04:27:54.234Z,10.94
2018-09-28T04:28:54.234Z,10.96
2018-09-28T04:29:54.235Z,11.04
2018-09-28T04:30:54.215Z,10.94
2018-09-28T04:31:54.196Z,11.04
2018-09-28T04:32:54.173Z,11.12
2018-09-28T04:33:54.224Z,11.14
2018-09-28T04:34:54.155Z,11.14
2018-09-28T04:35:54.148Z,11.19
2018-09-28T04:36:54.137Z,11.11
2018-09-28T04:37:54.122Z,11.15
2018-09-28T04:38:54.109Z,11.15
2018-09-28T04:39:54.114Z,11.17
2018-09-28T04:40:54.085Z,11.11
2018-09-28T04:41:54.080Z,11.22
2018-09-28T04:42:54.065Z,11.15
2018-09-28T04:43:54.045Z,11.18
2018-09-28T04:44:54.092Z,11.25
2018-09-28T04:45:54.028Z,11.22
2018-09-28T04:46:54.015Z,11.22
2018-09-28T04:47:54.220Z,11.23
2018-09-28T04:48:53.994Z,11.22
2018-09-28T04:49:54.030Z,11.23
2018-09-28T04:50:54.052Z,11.23
2018-09-28T04:51:53.966Z,11.30
2018-09-28T04:52:53.954Z,11.36
2018-09-28T04:53:53.966Z,11.40
2018-09-28T04:54:54.426Z,11.40
2018-09-28T04:55:53.969Z,11.40
2018-09-28T04:56:53.897Z,11.48
2018-09-28T04:57:53.887Z,11.51
2018-09-28T04:58:53.878Z,11.50
2018-09-28T04:59:53.887Z,11.55
2018-09-28T05:00:53.867Z,11.51
2018-09-28T05:01:53.858Z,11.57
2018-09-28T05:02:53.833Z,11.65
2018-09-28T05:03:53.824Z,11.68
2018-09-28T05:04:53.823Z,11.73
2018-09-28T05:05:53.827Z,11.72
2018-09-28T05:06:53.791Z,11.70
2018-09-28T05:07:53.780Z,11.73
2018-09-28T05:08:53.763Z,11.87
2018-09-28T05:09:53.752Z,11.83
2018-09-28T05:10:53.763Z,11.78
2018-09-28T05:11:53.737Z,11.81
2018-09-28T05:12:53.736Z,11.91
2018-09-28T05:13:53.709Z,11.84
2018-09-28T05:14:53.719Z,11.90
2018-09-28T05:15:53.696Z,11.94
2018-09-28T05:16:53.673Z,12.00
2018-09-28T05:17:53.657Z,12.04
2018-09-28T05:18:53.650Z,12.04
2018-09-28T05:19:53.637Z,12.02
2018-09-28T05:20:53.650Z,12.04
2018-09-28T05:21:53.631Z,11.99
2018-09-28T05:22:53.604Z,12.02
2018-09-28T05:23:53.617Z,12.09
2018-09-28T05:24:53.586Z,12.10
2018-09-28T05:25:53.587Z,12.12
2018-09-28T05:26:53.557Z,12.17
2018-09-28T05:27:53.574Z,12.13
2018-09-28T05:28:53.534Z,12.17
2018-09-28T05:29:53.523Z,12.22
2018-09-28T05:30:53.962Z,12.31
2018-09-28T05:31:53.723Z,12.27
2018-09-28T05:32:53.573Z,12.27
2018-09-28T05:33:53.477Z,12.31
2018-09-28T05:34:53.461Z,12.29
2018-09-28T05:35:53.479Z,12.37
2018-09-28T05:36:53.457Z,12.31
2018-09-28T05:37:53.456Z,12.36
2018-09-28T05:38:53.421Z,12.37
2018-09-28T05:39:53.412Z,12.45
2018-09-28T05:40:53.414Z,12.40
2018-09-28T05:41:53.394Z,12.43
2018-09-28T05:42:53.403Z,12.37
2018-09-28T05:43:53.500Z,12.53
2018-09-28T05:44:53.350Z,12.50
2018-09-28T05:45:53.369Z,12.54
2018-09-28T05:46:53.331Z,12.62
2018-09-28T05:47:53.333Z,12.55
2018-09-28T05:48:53.308Z,12.54
2018-09-28T05:49:53.312Z,12.58
2018-09-28T05:50:53.281Z,12.57
2018-09-28T05:51:53.277Z,12.65
2018-09-28T05:52:53.297Z,12.62
2018-09-28T05:53:53.271Z,12.65
2018-09-28T05:54:53.235Z,12.72
2018-09-28T05:55:53.231Z,12.67
2018-09-28T05:56:53.223Z,12.64
2018-09-28T05:57:53.232Z,12.65
2018-09-28T05:58:53.190Z,12.70
2018-09-28T05:59:53.188Z,12.64
2018-09-28T06:00:53.176Z,12.78
2018-09-28T06:01:53.193Z,12.75
2018-09-28T06:02:53.200Z,12.82
2018-09-28T06:03:53.135Z,12.83
2018-09-28T06:04:53.127Z,12.83
2018-09-28T06:05:53.123Z,12.90
2018-09-28T06:06:53.106Z,12.91
2018-09-28T06:07:53.110Z,12.87
2018-09-28T06:08:53.081Z,12.85
2018-09-28T06:09:53.074Z,12.85
2018-09-28T06:10:53.056Z,12.87
2018-09-28T06:11:53.049Z,12.93
2018-09-28T06:12:53.054Z,12.87
2018-09-28T06:13:53.041Z,12.90
2018-09-28T06:14:53.022Z,12.91
2018-09-28T06:15:53.010Z,12.97
2018-09-28T06:16:52.994Z,12.95
2018-09-28T06:17:53.032Z,12.93
2018-09-28T06:18:53.017Z,12.95
2018-09-28T06:19:52.956Z,12.94
2018-09-28T06:20:52.945Z,12.97
2018-09-28T06:21:52.937Z,12.95
2018-09-28T06:22:52.922Z,12.91
2018-09-28T06:23:52.936Z,12.97
2018-09-28T06:24:52.900Z,13.00
2018-09-28T06:25:52.898Z,13.00
2018-09-28T06:26:52.876Z,12.93
2018-09-28T06:27:52.888Z,12.94
2018-09-28T06:28:52.865Z,13.01
2018-09-28T06:29:52.874Z,13.05
2018-09-28T06:30:52.832Z,13.01
2018-09-28T06:31:52.817Z,13.08
2018-09-28T06:32:52.818Z,13.05
2018-09-28T06:33:52.838Z,13.01
2018-09-28T06:34:52.808Z,13.03
2018-09-28T06:35:52.822Z,13.03
2018-09-28T06:36:52.767Z,13.04
2018-09-28T06:37:52.760Z,13.03
2018-09-28T06:38:52.756Z,13.12
2018-09-28T06:39:52.753Z,13.12
2018-09-28T06:40:52.746Z,13.12
2018-09-28T06:41:52.745Z,13.13
2018-09-28T06:42:52.694Z,13.13
2018-09-28T06:43:52.700Z,13.15
2018-09-28T06:44:52.694Z,13.20
2018-09-28T06:45:52.673Z,13.30
2018-09-28T06:46:52.657Z,13.33
2018-09-28T06:47:52.665Z,13.25
2018-09-28T06:48:52.642Z,13.39
2018-09-28T06:49:52.614Z,13.39
2018-09-28T06:50:52.616Z,13.44
2018-09-28T06:51:52.591Z,13.42
2018-09-28T06:52:52.595Z,13.39
2018-09-28T06:53:52.619Z,13.46
2018-09-28T06:54:52.572Z,13.44
2018-09-28T06:55:52.559Z,13.56
2018-09-28T06:56:52.546Z,13.54
2018-09-28T06:57:52.530Z,13.53
2018-09-28T06:58:52.554Z,13.65
2018-09-28T06:59:52.524Z,13.68
2018-09-28T07:00:52.553Z,13.68
2018-09-28T07:01:52.509Z,13.72
2018-09-28T07:02:52.506Z,13.72
2018-09-28T07:03:52.465Z,13.74
2018-09-28T07:04:52.484Z,13.68
2018-09-28T07:05:52.445Z,13.65
2018-09-28T07:06:52.432Z,13.63
2018-09-28T07:07:52.420Z,13.71
2018-09-28T07:08:52.422Z,13.70
2018-09-28T07:09:52.431Z,13.70
2018-09-28T07:10:52.466Z,13.63
2018-09-28T07:11:52.409Z,13.67
2018-09-28T07:12:52.360Z,13.62
2018-09-28T07:13:52.366Z,13.60
2018-09-28T07:14:52.346Z,13.63
2018-09-28T07:15:52.351Z,13.71
2018-09-28T07:16:52.377Z,13.68
2018-09-28T07:17:52.324Z,13.75
2018-09-28T07:18:52.304Z,13.81
2018-09-28T07:19:52.311Z,13.78
2018-09-28T07:20:52.274Z,13.81
2018-09-28T07:21:52.266Z,13.79
2018-09-28T07:22:52.254Z,13.87
2018-09-28T07:23:52.266Z,13.89
2018-09-28T07:24:52.387Z,13.89
2018-09-28T07:25:52.263Z,13.93
2018-09-28T07:26:52.207Z,13.89
2018-09-28T07:27:52.203Z,13.99
2018-09-28T07:28:52.189Z,13.92
2018-09-28T07:29:52.223Z,13.97
2018-09-28T07:30:52.178Z,14.00
2018-09-28T07:31:52.181Z,13.93
2018-09-28T07:32:52.143Z,13.95
2018-09-28T07:33:52.134Z,14.07
2018-09-28T07:34:52.120Z,14.14
2018-09-28T07:35:52.228Z,14.10
2018-09-28T07:36:52.225Z,14.03
2018-09-28T07:37:52.096Z,14.12
2018-09-28T07:38:52.077Z,14.05
2018-09-28T07:39:52.150Z,14.05
2018-09-28T07:40:52.058Z,14.17
2018-09-28T07:41:52.129Z,14.14
2018-09-28T07:42:52.028Z,14.20
2018-09-28T07:43:52.026Z,14.22
2018-09-28T07:44:52.025Z,14.20
2018-09-28T07:45:52.013Z,14.29
2018-09-28T07:46:52.005Z,14.23
2018-09-28T07:47:52.096Z,14.18
2018-09-28T07:48:51.963Z,14.26
2018-09-28T07:49:51.953Z,14.15
2018-09-28T07:50:51.964Z,14.15
2018-09-28T07:51:51.931Z,14.10
2018-09-28T07:52:51.923Z,14.15
2018-09-28T07:53:51.926Z,14.10
2018-09-28T07:54:51.924Z,14.10
2018-09-28T07:55:51.934Z,14.25
2018-09-28T07:56:51.884Z,14.29
2018-09-28T07:57:51.883Z,14.41
2018-09-28T07:58:51.854Z,14.55
2018-09-28T07:59:51.854Z,14.66
2018-09-28T08:00:51.850Z,14.69
2018-09-28T08:01:51.838Z,14.85
2018-09-28T08:02:51.836Z,14.91
2018-09-28T08:03:51.829Z,15.07
2018-09-28T08:04:51.783Z,15.24
2018-09-28T08:05:51.779Z,15.14
2018-09-28T08:06:51.770Z,15.46
2018-09-28T08:07:51.744Z,15.33
2018-09-28T08:08:51.759Z,15.33
2018-09-28T08:09:51.727Z,15.22
2018-09-28T08:10:51.748Z,15.27
2018-09-28T08:11:51.720Z,15.10
2018-09-28T08:12:51.695Z,15.15
2018-09-28T08:13:51.698Z,15.15
2018-09-28T08:14:51.687Z,15.03
2018-09-28T08:15:51.678Z,15.09
2018-09-28T08:16:51.646Z,15.02
2018-09-28T08:17:51.707Z,14.97
2018-09-28T08:18:51.655Z,14.82
2018-09-28T08:19:51.625Z,14.66
2018-09-28T08:20:51.605Z,14.66
2018-09-28T08:21:51.601Z,14.51
2018-09-28T08:22:51.613Z,14.51
2018-09-28T08:23:51.603Z,14.51
2018-09-28T08:24:51.551Z,14.44
2018-09-28T08:25:51.546Z,14.47
2018-09-28T08:26:51.530Z,14.40
2018-09-28T08:27:51.529Z,14.37
2018-09-28T08:28:51.530Z,14.45
2018-09-28T08:29:51.531Z,14.48
2018-09-28T08:30:51.482Z,14.45
2018-09-28T08:31:51.472Z,14.50
2018-09-28T08:32:51.466Z,14.55
2018-09-28T08:33:51.449Z,14.66
2018-09-28T08:34:51.461Z,14.68
2018-09-28T08:35:51.423Z,14.69
2018-09-28T08:36:51.468Z,14.62
2018-09-28T08:37:51.407Z,14.62
2018-09-28T08:38:51.426Z,14.62
2018-09-28T08:39:51.386Z,14.53
2018-09-28T08:40:51.377Z,14.53
2018-09-28T08:41:51.373Z,14.45
2018-09-28T08:42:51.343Z,14.54
2018-09-28T08:43:51.354Z,14.53
2018-09-28T08:44:51.342Z,14.54
2018-09-28T08:45:51.336Z,14.41
2018-09-28T08:46:51.297Z,14.41
2018-09-28T08:47:51.287Z,14.37
2018-09-28T08:48:51.280Z,14.35
2018-09-28T08:49:51.289Z,14.30
2018-09-28T08:50:51.261Z,14.32
2018-09-28T08:51:51.239Z,14.30
2018-09-28T08:52:51.250Z,14.41
2018-09-28T08:53:51.222Z,14.28
2018-09-28T08:54:51.220Z,14.29
2018-09-28T08:55:51.193Z,14.26
2018-09-28T08:56:51.190Z,14.29
2018-09-28T08:57:51.873Z,14.29
2018-09-28T08:58:51.160Z,14.28
2018-09-28T08:59:52.293Z,14.29
2018-09-28T09:00:51.134Z,14.32
2018-09-28T09:01:51.127Z,14.18
2018-09-28T09:02:51.118Z,14.25
2018-09-28T09:03:51.112Z,14.15
2018-09-28T09:04:51.344Z,14.22
2018-09-28T09:05:51.723Z,14.05
2018-09-28T09:06:51.065Z,13.99
2018-09-28T09:07:51.067Z,14.03
2018-09-28T09:08:51.057Z,14.04
2018-09-28T09:09:52.064Z,14.07
2018-09-28T09:10:51.021Z,14.03
2018-09-28T09:11:51.012Z,13.97
2018-09-28T09:12:50.995Z,14.07
2018-09-28T09:13:51.032Z,14.05
2018-09-28T09:14:50.973Z,14.10
2018-09-28T09:15:50.994Z,14.11
2018-09-28T09:16:51.110Z,14.15
2018-09-28T09:17:50.999Z,14.18
2018-09-28T09:18:50.933Z,14.12
2018-09-28T09:19:50.924Z,14.15
2018-09-28T09:20:50.963Z,14.28
2018-09-28T09:21:50.909Z,14.37
2018-09-28T09:22:50.890Z,14.44
2018-09-28T09:23:50.903Z,14.47
2018-09-28T09:24:50.865Z,14.53
2018-09-28T09:25:51.049Z,14.59
2018-09-28T09:26:50.927Z,14.58
2018-09-28T09:27:50.839Z,14.69
2018-09-28T09:28:50.826Z,14.73
2018-09-28T09:29:50.811Z,14.86
2018-09-28T09:30:50.833Z,14.97
2018-09-28T09:31:50.782Z,15.02
2018-09-28T09:32:50.785Z,15.02
2018-09-28T09:33:50.769Z,15.10
2018-09-28T09:34:50.762Z,15.25
2018-09-28T09:35:50.757Z,15.22
2018-09-28T09:36:50.729Z,15.19
2018-09-28T09:37:50.722Z,15.19
2018-09-28T09:38:50.712Z,15.14
2018-09-28T09:39:50.694Z,15.00
2018-09-28T09:40:50.676Z,15.11
2018-09-28T09:41:50.715Z,15.07
2018-09-28T09:42:50.655Z,14.92
2018-09-28T09:43:50.648Z,14.86
2018-09-28T09:44:50.677Z,14.85
2018-09-28T09:45:50.628Z,14.88
2018-09-28T09:46:50.629Z,14.94
2018-09-28T09:47:50.605Z,14.94
2018-09-28T09:48:50.585Z,14.99
2018-09-28T09:49:50.589Z,15.02
2018-09-28T09:50:50.563Z,15.07
2018-09-28T09:51:50.571Z,15.17
2018-09-28T09:52:50.540Z,15.17
2018-09-28T09:53:50.535Z,15.28
2018-09-28T09:54:50.536Z,15.17
2018-09-28T09:55:50.513Z,15.29
2018-09-28T09:56:50.527Z,15.37
2018-09-28T09:57:50.608Z,15.40
2018-09-28T09:58:50.488Z,15.42
2018-09-28T09:59:50.465Z,15.42
2018-09-28T10:00:50.447Z,15.46
2018-09-28T10:01:50.460Z,15.57
2018-09-28T10:02:50.457Z,15.49
2018-09-28T10:03:50.423Z,15.55
2018-09-28T10:04:50.417Z,15.42
2018-09-28T10:05:50.398Z,15.44
2018-09-28T10:06:50.377Z,15.47
2018-09-28T10:07:50.405Z,15.51
2018-09-28T10:08:50.354Z,15.54
2018-09-28T10:09:50.349Z,15.57
2018-09-28T10:10:50.344Z,15.51
2018-09-28T10:11:50.330Z,15.62
2018-09-28T10:12:50.827Z,15.70
2018-09-28T10:13:50.313Z,15.65
2018-09-28T10:14:50.297Z,15.65
2018-09-28T10:15:50.281Z,15.54
2018-09-28T10:16:50.264Z,15.43
2018-09-28T10:17:50.273Z,15.37
2018-09-28T10:18:50.260Z,15.39
2018-09-28T10:19:50.237Z,15.28
2018-09-28T10:20:50.234Z,15.24
2018-09-28T10:21:50.235Z,15.28
2018-09-28T10:22:50.265Z,15.33
2018-09-28T10:23:50.196Z,15.28
2018-09-28T10:24:50.172Z,15.40
2018-09-28T10:25:50.177Z,15.36
2018-09-28T10:26:50.168Z,15.44
2018-09-28T10:27:50.264Z,15.42
2018-09-28T10:28:50.171Z,15.51
2018-09-28T10:29:50.133Z,15.58
2018-09-28T10:30:50.142Z,15.59
2018-09-28T10:31:50.101Z,15.62
2018-09-28T10:32:50.102Z,15.72
2018-09-28T10:33:50.098Z,15.72
2018-09-28T10:34:50.307Z,15.92
2018-09-28T10:35:50.056Z,15.95
2018-09-28T10:36:50.057Z,15.94
2018-09-28T10:37:50.037Z,15.90
2018-09-28T10:38:50.043Z,16.01
2018-09-28T10:39:50.067Z,16.09
2018-09-28T10:40:50.094Z,16.00
2018-09-28T10:41:49.991Z,16.15
2018-09-28T10:42:49.993Z,16.15
2018-09-28T10:43:49.985Z,16.24
2018-09-28T10:44:49.954Z,16.29
2018-09-28T10:45:50.103Z,16.26
2018-09-28T10:46:49.942Z,16.29
2018-09-28T10:47:49.933Z,16.41
2018-09-28T10:48:51.393Z,16.51
2018-09-28T10:49:49.903Z,16.43
2018-09-28T10:50:50.059Z,16.43
2018-09-28T10:51:49.980Z,16.51
2018-09-28T10:52:49.987Z,16.57
2018-09-28T10:53:49.883Z,16.38
2018-09-28T10:54:49.905Z,16.36
2018-09-28T10:55:49.828Z,16.38
2018-09-28T10:56:50.028Z,16.32
2018-09-28T10:57:49.818Z,16.41
2018-09-28T10:58:49.868Z,16.47
2018-09-28T10:59:49.801Z,16.43
2018-09-28T11:00:49.778Z,16.49
2018-09-28T11:01:49.766Z,16.60
2018-09-28T11:02:49.766Z,16.71
2018-09-28T11:03:49.889Z,16.68
2018-09-28T11:04:49.796Z,16.64
2018-09-28T11:05:49.763Z,16.69
2018-09-28T11:06:49.712Z,16.71
2018-09-28T11:07:49.751Z,16.65
2018-09-28T11:08:49.735Z,16.69
2018-09-28T11:09:49.723Z,16.68
2018-09-28T11:10:49.737Z,16.68
2018-09-28T11:11:49.653Z,16.68
2018-09-28T11:12:49.644Z,16.75
2018-09-28T11:13:49.629Z,16.78
2018-09-28T11:14:49.685Z,16.81
2018-09-28T11:15:49.710Z,16.90
2018-09-28T11:16:49.600Z,17.04
2018-09-28T11:17:49.590Z,16.96
2018-09-28T11:18:49.641Z,17.05
2018-09-28T11:19:49.568Z,16.86
2018-09-28T11:20:49.568Z,17.02
2018-09-28T11:21:49.611Z,17.04
2018-09-28T11:22:49.537Z,16.90
2018-09-28T11:23:49.514Z,16.86
2018-09-28T11:24:49.506Z,16.87
2018-09-28T11:25:49.558Z,16.79
2018-09-28T11:26:49.498Z,16.71
2018-09-28T11:27:49.577Z,16.60
2018-09-28T11:28:49.476Z,16.39
2018-09-28T11:29:49.492Z,16.60
2018-09-28T11:30:49.466Z,16.47
2018-09-28T11:31:49.440Z,16.53
2018-09-28T11:32:49.445Z,16.43
2018-09-28T11:33:49.527Z,16.50
2018-09-28T11:35:50.487Z,16.42
2018-09-28T11:36:49.383Z,16.29
2018-09-28T11:37:49.496Z,16.13
2018-09-28T11:38:49.365Z,15.97
2018-09-28T11:39:49.345Z,15.84
2018-09-28T11:40:49.375Z,15.67
2018-09-28T11:41:49.329Z,15.70
2018-09-28T11:42:49.320Z,15.64
2018-09-28T11:43:49.294Z,15.57
2018-09-28T11:44:49.296Z,15.64
2018-09-28T11:45:49.389Z,15.72
2018-09-28T11:46:49.264Z,15.75
2018-09-28T11:47:49.255Z,15.75
2018-09-28T11:48:49.270Z,15.91
2018-09-28T11:49:49.227Z,16.02
2018-09-28T11:50:49.297Z,16.24
2018-09-28T11:51:49.259Z,16.29
2018-09-28T11:52:49.259Z,16.29
2018-09-28T11:53:49.183Z,16.39
2018-09-28T11:54:49.174Z,16.38
2018-09-28T11:55:49.198Z,16.41
2018-09-28T11:56:49.158Z,16.42
2018-09-28T11:57:49.140Z,16.43
2018-09-28T11:58:49.132Z,16.64
2018-09-28T11:59:49.146Z,16.76
2018-09-28T12:00:49.126Z,16.87
2018-09-28T12:01:49.114Z,16.87
2018-09-28T12:02:49.097Z,16.94
2018-09-28T12:03:49.201Z,17.01
2018-09-28T12:04:49.062Z,17.22
2018-09-28T12:05:49.091Z,17.26
2018-09-28T12:06:49.188Z,17.27
2018-09-28T12:07:49.032Z,17.30
2018-09-28T12:08:49.060Z,17.42
2018-09-28T12:09:49.130Z,17.38
2018-09-28T12:10:49.059Z,17.42
2018-09-28T12:11:49.019Z,17.44
2018-09-28T12:12:49.156Z,17.23
2018-09-28T12:13:48.961Z,17.19
2018-09-28T12:14:48.952Z,17.09
2018-09-28T12:15:48.980Z,16.93
2018-09-28T12:16:48.944Z,17.01
2018-09-28T12:17:48.960Z,17.19
2018-09-28T12:18:48.986Z,17.09
2018-09-28T12:19:48.896Z,17.05
2018-09-28T12:20:48.901Z,17.19
2018-09-28T12:21:48.929Z,17.16
2018-09-28T12:22:48.873Z,17.19
2018-09-28T12:23:48.862Z,17.19
2018-09-28T12:24:48.897Z,17.19
2018-09-28T12:25:48.825Z,17.22
2018-09-28T12:26:48.884Z,17.22
2018-09-28T12:27:48.889Z,17.22
2018-09-28T12:28:48.805Z,17.20
2018-09-28T12:29:48.790Z,17.29
2018-09-28T12:30:48.870Z,17.29
2018-09-28T12:31:48.792Z,17.41
2018-09-28T12:32:48.749Z,17.54
2018-09-28T12:33:48.870Z,17.63
2018-09-28T12:34:48.727Z,17.57
2018-09-28T12:35:48.777Z,17.57
2018-09-28T12:36:48.792Z,17.49
2018-09-28T12:37:48.710Z,17.59
2018-09-28T12:38:48.702Z,17.67
2018-09-28T12:39:48.808Z,17.51
2018-09-28T12:40:48.666Z,17.54
2018-09-28T12:41:48.675Z,17.54
2018-09-28T12:42:48.722Z,17.51
2018-09-28T12:43:48.665Z,17.54
2018-09-28T12:44:48.664Z,17.63
2018-09-28T12:45:48.632Z,17.39
2018-09-28T12:46:48.628Z,17.22
2018-09-28T12:47:48.607Z,16.97
2018-09-28T12:48:48.654Z,16.87
2018-09-28T12:49:48.577Z,16.97
2018-09-28T12:50:48.613Z,17.14
2018-09-28T12:51:48.560Z,17.16
2018-09-28T12:52:48.582Z,17.34
2018-09-28T12:53:48.639Z,17.44
2018-09-28T12:54:48.565Z,17.29
2018-09-28T12:55:48.502Z,17.30
2018-09-28T12:56:48.518Z,17.27
2018-09-28T12:57:48.517Z,17.16
2018-09-28T12:58:48.483Z,17.30
2018-09-28T12:59:48.448Z,17.38